Parkland, Illinois
Current Conditions -  °F | °C
As of 3:54 PM on Monday 24 Nov 2014 (Local Time) from KPIA Reporting Station
Overcast Overcast  
Wind Chill: 19°   Ceiling: 1700
Heat Index: 31°   Visibility: 10mi
Dew Point: 24°   Wind: 18mph
Humidity: 76%   Direction: 260°W
Pressure: 29.72"   Gusts: 26mph
Location:  40.3879°N, 89.7742°W
Report Text: KPIA 242154Z 26016G23KT 10SM OVC017 M01/M04 A2972 RMK AO2 PK WND 26029/2107 PRESRR SLP070 T10061044
Loading
Personal Weather Stations






























Interactive Weather Map New forecast layout! Learn more

10-Day Weather Forecast

Advertisements
Track Severe Weather on mobile